createdAt,value
2022-10-17T00:03:34.557Z,98707.00
2022-10-17T00:08:38.032Z,98692.00
2022-10-17T00:13:40.796Z,98704.00
2022-10-17T00:18:43.560Z,98701.00
2022-10-17T00:23:47.126Z,98707.00
2022-10-17T00:28:51.301Z,98712.00
2022-10-17T00:33:54.749Z,98709.00
2022-10-17T00:38:59.800Z,98714.00
2022-10-17T00:44:27.009Z,98702.00
2022-10-17T00:49:32.977Z,98703.00
2022-10-17T00:54:40.152Z,98702.00
2022-10-17T00:59:45.154Z,98711.00
2022-10-17T01:04:53.322Z,98715.00
2022-10-17T01:09:56.990Z,98725.00
2022-10-17T01:15:35.467Z,98718.00
2022-10-17T01:21:19.048Z,98727.00
2022-10-17T01:26:54.210Z,98731.00
2022-10-17T01:32:06.427Z,98727.00
2022-10-17T01:37:40.388Z,98726.00
2022-10-17T01:43:05.116Z,98719.00
2022-10-17T01:48:18.543Z,98713.00
2022-10-17T01:53:31.880Z,98704.00
2022-10-17T01:58:40.536Z,98710.00
2022-10-17T02:03:46.228Z,98702.00
2022-10-17T02:08:50.900Z,98696.00
2022-10-17T02:13:59.562Z,98703.00
2022-10-17T02:19:39.977Z,98691.00
2022-10-17T02:24:53.753Z,98684.00
2022-10-17T02:30:14.000Z,98685.00
2022-10-17T02:35:17.970Z,98698.00
2022-10-17T02:40:23.271Z,98689.00
2022-10-17T02:45:29.921Z,98681.00
2022-10-17T02:51:02.792Z,98693.00
2022-10-17T02:56:11.766Z,98695.00
2022-10-17T03:01:15.864Z,98698.00
2022-10-17T03:06:19.159Z,98707.00
2022-10-17T03:11:22.068Z,98709.00
2022-10-17T03:16:26.398Z,98700.00
2022-10-17T03:21:29.364Z,98698.00
2022-10-17T03:26:32.747Z,98692.00
2022-10-17T03:31:36.002Z,98696.00
2022-10-17T03:36:39.852Z,98708.00
2022-10-17T03:41:42.857Z,98710.00
2022-10-17T03:46:45.677Z,98711.00
2022-10-17T03:51:48.659Z,98723.00
2022-10-17T03:56:53.801Z,98723.00
2022-10-17T04:01:56.887Z,98723.00
2022-10-17T04:06:59.690Z,98735.00
2022-10-17T04:12:02.744Z,98738.00
2022-10-17T04:17:06.607Z,98739.00
2022-10-17T04:22:10.909Z,98732.00
2022-10-17T04:27:15.604Z,98734.00
2022-10-17T04:32:21.554Z,98747.00
2022-10-17T04:37:30.599Z,98743.00
2022-10-17T04:42:34.838Z,98743.00
2022-10-17T04:47:37.808Z,98751.00
2022-10-17T04:52:41.308Z,98747.00
2022-10-17T04:57:44.897Z,98753.00
2022-10-17T05:02:54.563Z,98747.00
2022-10-17T05:07:57.402Z,98756.00
2022-10-17T05:13:02.987Z,98757.00
2022-10-17T05:18:08.658Z,98758.00
2022-10-17T05:23:12.856Z,98765.00
2022-10-17T05:28:18.730Z,98767.00
2022-10-17T05:33:24.120Z,98764.00
2022-10-17T05:38:28.042Z,98774.00
2022-10-17T05:43:31.400Z,98779.00
2022-10-17T05:48:35.437Z,98775.00
2022-10-17T05:53:40.576Z,98775.00
2022-10-17T05:58:53.187Z,98773.00
2022-10-17T06:04:18.073Z,98779.00
2022-10-17T06:09:21.479Z,98787.00
2022-10-17T06:14:26.888Z,98797.00
2022-10-17T06:19:35.590Z,98794.00
2022-10-17T06:24:39.191Z,98799.00
2022-10-17T06:29:41.995Z,98816.00
2022-10-17T06:34:45.267Z,98823.00
2022-10-17T06:39:48.120Z,98824.00
2022-10-17T06:44:57.059Z,98823.00
2022-10-17T06:50:28.998Z,98829.00
2022-10-17T06:55:55.433Z,98832.00
2022-10-17T07:01:17.070Z,98832.00
2022-10-17T07:06:24.534Z,98845.00
2022-10-17T07:11:28.000Z,98844.00
2022-10-17T07:16:30.802Z,98846.00
2022-10-17T07:21:43.077Z,98859.00
2022-10-17T07:26:47.728Z,98863.00
2022-10-17T07:31:52.118Z,98849.00
2022-10-17T07:36:55.207Z,98858.00
2022-10-17T07:41:59.144Z,98863.00
2022-10-17T07:47:04.429Z,98861.00
2022-10-17T07:52:07.381Z,98861.00
2022-10-17T07:57:10.490Z,98860.00
2022-10-17T08:02:23.746Z,98863.00
2022-10-17T08:07:29.305Z,98866.00
2022-10-17T08:12:34.480Z,98870.00
2022-10-17T08:17:38.215Z,98875.00
2022-10-17T08:22:41.098Z,98884.00
2022-10-17T08:27:43.866Z,98873.00
2022-10-17T08:32:46.597Z,98882.00
2022-10-17T08:37:49.478Z,98882.00
2022-10-17T08:43:04.760Z,98885.00
2022-10-17T08:48:16.078Z,98884.00
2022-10-17T08:53:21.747Z,98870.00
2022-10-17T08:58:31.181Z,98885.00
2022-10-17T09:03:55.852Z,98882.00
2022-10-17T09:09:10.670Z,98880.00
2022-10-17T09:15:00.955Z,98879.00
2022-10-17T09:20:21.063Z,98879.00
2022-10-17T09:25:24.180Z,98890.00
2022-10-17T09:30:46.619Z,98881.00
2022-10-17T09:35:50.990Z,98882.00
2022-10-17T09:41:00.547Z,98890.00
2022-10-17T09:46:09.443Z,98891.00
2022-10-17T09:51:15.115Z,98895.00
2022-10-17T09:56:28.265Z,98895.00
2022-10-17T10:01:32.171Z,98896.00
2022-10-17T10:06:35.201Z,98892.00
2022-10-17T10:11:50.029Z,98891.00
2022-10-17T10:16:55.932Z,98898.00
2022-10-17T10:22:05.535Z,98903.00
2022-10-17T10:27:16.036Z,98898.00
2022-10-17T10:32:29.066Z,98901.00
2022-10-17T10:37:43.559Z,98895.00
2022-10-17T10:42:55.487Z,98896.00
2022-10-17T10:48:00.975Z,98889.00
2022-10-17T10:53:26.088Z,98880.00
2022-10-17T10:58:55.733Z,98876.00
2022-10-17T11:04:19.689Z,98876.00
2022-10-17T11:10:00.011Z,98877.00
2022-10-17T11:15:08.853Z,98869.00
2022-10-17T11:20:32.728Z,98863.00
2022-10-17T11:25:38.122Z,98860.00
2022-10-17T11:30:57.682Z,98859.00
2022-10-17T11:36:06.976Z,98850.00
2022-10-17T11:41:24.771Z,98848.00
2022-10-17T11:46:29.293Z,98847.00
2022-10-17T11:52:03.183Z,98844.00
2022-10-17T11:57:30.278Z,98847.00
2022-10-17T12:02:56.389Z,98845.00
2022-10-17T12:08:34.905Z,98844.00
2022-10-17T12:13:37.560Z,98838.00
2022-10-17T12:18:40.350Z,98840.00
2022-10-17T12:23:53.802Z,98840.00
2022-10-17T12:28:57.505Z,98833.00
2022-10-17T12:34:03.211Z,98826.00
2022-10-17T12:39:09.107Z,98831.00
2022-10-17T12:44:15.190Z,98825.00
2022-10-17T12:49:45.821Z,98822.00
2022-10-17T12:55:13.178Z,98823.00
2022-10-17T13:00:29.443Z,98819.00
2022-10-17T13:05:36.176Z,98823.00
2022-10-17T13:10:43.139Z,98826.00
2022-10-17T13:15:49.203Z,98831.00
2022-10-17T13:20:59.749Z,98831.00
2022-10-17T13:26:10.395Z,98830.00
2022-10-17T13:31:34.229Z,98832.00
2022-10-17T13:36:37.036Z,98842.00
2022-10-17T13:41:41.419Z,98844.00
2022-10-17T13:46:45.127Z,98842.00
2022-10-17T13:51:50.796Z,98839.00
2022-10-17T13:56:57.810Z,98834.00
2022-10-17T14:02:02.118Z,98839.00
2022-10-17T14:07:05.979Z,98837.00
2022-10-17T14:12:13.433Z,98839.00
2022-10-17T14:17:25.157Z,98833.00
2022-10-17T14:22:30.164Z,98828.00
2022-10-17T14:27:52.578Z,98830.00
2022-10-17T14:32:58.091Z,98826.00
2022-10-17T14:38:06.700Z,98826.00
2022-10-17T14:43:20.858Z,98835.00
2022-10-17T14:48:25.366Z,98826.00
2022-10-17T14:53:30.365Z,98836.00
2022-10-17T14:58:34.287Z,98831.00
2022-10-17T15:03:37.082Z,98842.00
2022-10-17T15:08:39.955Z,98841.00
2022-10-17T15:13:45.678Z,98858.00
2022-10-17T15:18:49.253Z,98867.00
2022-10-17T15:23:52.538Z,98880.00
2022-10-17T15:28:55.718Z,98881.00
2022-10-17T15:33:58.479Z,98884.00
2022-10-17T15:39:02.223Z,98888.00
2022-10-17T15:44:05.181Z,98901.00
2022-10-17T15:49:14.440Z,98905.00
2022-10-17T15:54:17.176Z,98907.00
2022-10-17T15:59:23.014Z,98915.00
2022-10-17T16:04:27.566Z,98911.00
2022-10-17T16:09:30.336Z,98926.00
2022-10-17T16:14:33.246Z,98930.00
2022-10-17T16:19:35.989Z,98926.00
2022-10-17T16:24:38.682Z,98935.00
2022-10-17T16:29:41.495Z,98933.00
2022-10-17T16:34:44.367Z,98935.00
2022-10-17T16:39:52.376Z,98936.00
2022-10-17T16:44:55.256Z,98939.00
2022-10-17T16:49:58.012Z,98929.00
2022-10-17T16:55:00.811Z,98945.00
2022-10-17T17:00:04.801Z,98944.00
2022-10-17T17:05:08.698Z,98945.00
2022-10-17T17:10:11.436Z,98953.00
2022-10-17T17:15:16.906Z,98948.00
2022-10-17T17:20:19.637Z,98938.00
2022-10-17T17:25:23.077Z,98955.00
2022-10-17T17:30:25.845Z,98951.00
2022-10-17T17:35:30.765Z,98953.00
2022-10-17T17:40:34.693Z,98944.00
2022-10-17T17:45:37.527Z,98944.00
2022-10-17T17:50:41.625Z,98953.00
2022-10-17T17:55:45.047Z,98956.00
2022-10-17T18:00:47.846Z,98959.00
2022-10-17T18:05:50.546Z,98951.00
2022-10-17T18:10:56.879Z,98956.00
2022-10-17T18:16:01.485Z,98950.00
2022-10-17T18:21:04.326Z,98958.00
2022-10-17T18:26:07.674Z,98957.00
2022-10-17T18:31:13.058Z,98954.00
2022-10-17T18:36:16.422Z,98960.00
2022-10-17T18:41:21.369Z,98957.00
2022-10-17T18:46:36.616Z,98968.00
2022-10-17T18:51:40.168Z,98968.00
2022-10-17T18:56:44.058Z,98973.00
2022-10-17T19:01:48.267Z,98989.00
2022-10-17T19:06:51.630Z,98978.00
2022-10-17T19:11:55.803Z,98979.00
2022-10-17T19:17:04.453Z,98979.00
2022-10-17T19:22:10.054Z,98988.00
2022-10-17T19:27:13.158Z,98981.00
2022-10-17T19:32:18.115Z,98989.00
2022-10-17T19:37:24.013Z,98990.00
2022-10-17T19:42:29.281Z,99001.00
2022-10-17T19:47:32.906Z,98986.00
2022-10-17T19:52:35.668Z,98988.00
2022-10-17T19:57:38.374Z,98995.00
2022-10-17T20:02:41.127Z,98997.00
2022-10-17T20:07:43.883Z,99006.00
2022-10-17T20:12:46.872Z,99006.00
2022-10-17T20:17:49.615Z,99006.00
2022-10-17T20:22:52.473Z,99008.00
2022-10-17T20:27:55.190Z,99012.00
2022-10-17T20:32:58.039Z,99005.00
2022-10-17T20:38:00.758Z,99001.00
2022-10-17T20:43:05.480Z,99011.00
2022-10-17T20:48:12.386Z,99024.00
2022-10-17T20:53:36.109Z,99027.00
2022-10-17T20:58:38.215Z,99027.00
2022-10-17T21:03:43.977Z,99035.00
2022-10-17T21:08:49.662Z,99036.00
2022-10-17T21:14:00.905Z,99027.00
2022-10-17T21:19:04.503Z,99031.00
2022-10-17T21:24:12.593Z,99036.00
2022-10-17T21:29:15.473Z,99035.00
2022-10-17T21:34:21.313Z,99048.00
2022-10-17T21:39:24.991Z,99040.00
2022-10-17T21:44:28.145Z,99033.00
2022-10-17T21:49:30.887Z,99035.00
2022-10-17T21:54:33.745Z,99038.00
2022-10-17T21:59:36.485Z,99038.00
2022-10-17T22:04:39.178Z,99036.00
2022-10-17T22:09:41.909Z,99035.00
2022-10-17T22:14:44.988Z,99028.00
2022-10-17T22:19:48.501Z,99035.00
2022-10-17T22:24:51.224Z,99041.00
2022-10-17T22:29:54.013Z,99030.00
2022-10-17T22:34:56.753Z,99041.00
2022-10-17T22:39:59.490Z,99052.00
2022-10-17T22:45:05.585Z,99042.00
2022-10-17T22:50:08.580Z,99043.00
2022-10-17T22:55:11.351Z,99039.00
2022-10-17T23:00:14.342Z,99044.00
2022-10-17T23:05:17.155Z,99048.00
2022-10-17T23:10:19.857Z,99037.00
2022-10-17T23:15:25.387Z,99032.00
2022-10-17T23:20:29.293Z,99029.00
2022-10-17T23:25:33.840Z,99027.00
2022-10-17T23:30:37.513Z,99031.00
2022-10-17T23:35:41.013Z,99035.00
2022-10-17T23:40:43.854Z,99032.00
2022-10-17T23:45:46.820Z,99031.00
2022-10-17T23:50:49.645Z,99020.00
2022-10-17T23:55:53.034Z,99022.00
